createdAt,value
2019-04-28T00:01:48.180Z,12.25
2019-04-28T00:04:18.338Z,12.30
2019-04-28T00:06:48.478Z,12.26
2019-04-28T00:09:19.196Z,12.22
2019-04-28T00:11:49.382Z,12.18
2019-04-28T00:14:21.737Z,12.20
2019-04-28T00:16:51.945Z,12.19
2019-04-28T00:19:23.823Z,12.14
2019-04-28T00:22:20.846Z,12.06
2019-04-28T00:25:01.598Z,12.03
2019-04-28T00:27:31.870Z,11.96
2019-04-28T00:30:02.273Z,11.96
2019-04-28T00:32:32.933Z,11.86
2019-04-28T00:35:03.151Z,11.85
2019-04-28T00:37:35.656Z,11.83
2019-04-28T00:40:10.978Z,11.81
2019-04-28T00:42:41.393Z,11.77
2019-04-28T00:45:12.251Z,11.75
2019-04-28T00:47:42.770Z,11.71
2019-04-28T00:50:13.308Z,11.71
2019-04-28T00:52:43.437Z,11.69
2019-04-28T00:55:13.772Z,11.65
2019-04-28T00:57:43.882Z,11.61
2019-04-28T01:00:16.055Z,11.64
2019-04-28T01:02:46.721Z,11.59
2019-04-28T01:05:17.257Z,11.52
2019-04-28T01:07:47.388Z,11.52
2019-04-28T01:10:18.605Z,11.51
2019-04-28T01:12:48.740Z,11.47
2019-04-28T01:15:41.129Z,11.50
2019-04-28T01:18:24.139Z,11.47
2019-04-28T01:20:54.257Z,11.42
2019-04-28T01:23:24.388Z,11.39
2019-04-28T01:25:54.535Z,11.37
2019-04-28T01:28:24.679Z,11.30
2019-04-28T01:31:13.789Z,11.31
2019-04-28T01:34:02.866Z,11.32
2019-04-28T01:36:34.393Z,11.31
2019-04-28T01:39:05.909Z,11.22
2019-04-28T01:41:36.127Z,11.24
2019-04-28T01:44:06.509Z,11.24
2019-04-28T01:46:36.723Z,11.27
2019-04-28T01:49:06.924Z,11.27
2019-04-28T01:51:37.079Z,11.23
2019-04-28T01:54:07.197Z,11.24
2019-04-28T01:56:37.331Z,11.25
2019-04-28T01:59:07.440Z,11.23
2019-04-28T02:01:37.559Z,11.18
2019-04-28T02:04:07.683Z,11.18
2019-04-28T02:06:39.921Z,11.13
2019-04-28T02:09:11.439Z,11.07
2019-04-28T02:11:41.542Z,11.12
2019-04-28T02:14:11.655Z,11.03
2019-04-28T02:16:41.788Z,11.16
2019-04-28T02:19:11.907Z,11.00
2019-04-28T02:21:51.257Z,10.99
2019-04-28T02:24:40.482Z,10.93
2019-04-28T02:27:11.102Z,10.89
2019-04-28T02:29:41.717Z,10.83
2019-04-28T02:32:13.020Z,10.82
2019-04-28T02:34:43.321Z,10.80
2019-04-28T02:37:13.836Z,10.79
2019-04-28T02:39:43.976Z,10.76
2019-04-28T02:42:14.119Z,10.80
2019-04-28T02:44:44.257Z,10.76
2019-04-28T02:47:14.384Z,10.80
2019-04-28T02:50:11.410Z,10.79
2019-04-28T02:53:15.134Z,10.76
2019-04-28T02:55:45.254Z,10.74
2019-04-28T02:58:15.437Z,10.65
2019-04-28T03:01:01.115Z,10.53
2019-04-28T03:03:17.382Z,10.58
2019-04-28T03:05:47.507Z,10.56
2019-04-28T03:08:17.667Z,10.54
2019-04-28T03:10:50.720Z,10.50
2019-04-28T03:13:20.864Z,10.54
2019-04-28T03:15:51.917Z,10.49
2019-04-28T03:18:22.061Z,10.51
2019-04-28T03:20:52.325Z,10.49
2019-04-28T03:23:23.517Z,10.55
2019-04-28T03:26:02.527Z,10.60
2019-04-28T03:28:37.035Z,10.57
2019-04-28T03:32:01.047Z,10.65
2019-04-28T03:34:05.100Z,10.56
2019-04-28T03:36:35.324Z,10.56
2019-04-28T03:39:07.173Z,10.57
2019-04-28T03:41:40.584Z,10.56
2019-04-28T03:44:11.462Z,10.51
2019-04-28T03:46:51.134Z,10.53
2019-04-28T03:49:32.250Z,10.52
2019-04-28T03:52:03.913Z,10.61
2019-04-28T03:54:34.418Z,10.65
2019-04-28T03:57:04.745Z,10.63
2019-04-28T03:59:34.913Z,10.66
2019-04-28T04:02:05.030Z,10.71
2019-04-28T04:04:35.184Z,10.66
2019-04-28T04:07:05.320Z,10.73
2019-04-28T04:09:45.849Z,10.69
2019-04-28T04:12:51.053Z,10.68
2019-04-28T04:15:50.666Z,10.53
2019-04-28T04:18:30.724Z,10.47
2019-04-28T04:21:00.830Z,10.44
2019-04-28T04:23:32.242Z,10.45
2019-04-28T04:26:02.394Z,10.46
2019-04-28T04:28:32.526Z,10.46
2019-04-28T04:31:03.353Z,10.52
2019-04-28T04:33:33.670Z,10.57
2019-04-28T04:36:03.808Z,10.64
2019-04-28T04:38:34.992Z,10.73
2019-04-28T04:41:05.123Z,10.86
2019-04-28T04:43:36.459Z,10.91
2019-04-28T04:46:22.055Z,11.00
2019-04-28T04:48:51.544Z,11.05
2019-04-28T04:51:21.951Z,11.13
2019-04-28T04:53:54.305Z,11.16
2019-04-28T04:56:24.445Z,11.23
2019-04-28T04:58:54.567Z,11.31
2019-04-28T05:01:43.766Z,11.40
2019-04-28T05:04:24.053Z,11.50
2019-04-28T05:06:54.288Z,11.58
2019-04-28T05:09:24.427Z,11.66
2019-04-28T05:11:54.574Z,11.78
2019-04-28T05:14:24.743Z,11.80
2019-04-28T05:16:54.918Z,11.97
2019-04-28T05:19:25.079Z,12.06
2019-04-28T05:21:55.263Z,12.08
2019-04-28T05:24:54.186Z,12.20
2019-04-28T05:27:25.622Z,12.20
2019-04-28T05:29:57.030Z,12.34
2019-04-28T05:32:39.215Z,12.40
2019-04-28T05:34:59.994Z,12.37
2019-04-28T05:37:29.999Z,12.52
2019-04-28T05:40:00.803Z,12.60
2019-04-28T05:42:32.326Z,12.50
2019-04-28T05:45:02.528Z,12.39
2019-04-28T05:47:32.859Z,12.35
2019-04-28T05:50:19.581Z,12.47
2019-04-28T05:53:08.528Z,12.53
2019-04-28T05:55:53.593Z,12.71
2019-04-28T05:58:50.355Z,12.92
2019-04-28T06:01:38.292Z,13.08
2019-04-28T06:04:09.611Z,13.26
2019-04-28T06:06:42.122Z,13.34
2019-04-28T06:09:31.224Z,13.47
2019-04-28T06:12:01.414Z,13.55
2019-04-28T06:14:31.575Z,13.67
2019-04-28T06:17:04.085Z,13.77
2019-04-28T06:19:33.587Z,13.89
2019-04-28T06:22:03.745Z,14.17
2019-04-28T06:24:34.040Z,14.18
2019-04-28T06:27:05.373Z,14.44
2019-04-28T06:29:35.547Z,14.49
2019-04-28T06:32:05.803Z,14.57
2019-04-28T06:34:35.999Z,14.83
2019-04-28T06:37:06.163Z,14.96
2019-04-28T06:39:36.429Z,15.10
2019-04-28T06:42:08.222Z,15.00
2019-04-28T06:44:38.375Z,15.01
2019-04-28T06:47:08.524Z,14.99
2019-04-28T06:49:38.743Z,15.22
2019-04-28T06:52:08.973Z,15.25
2019-04-28T06:54:39.253Z,15.40
2019-04-28T06:57:09.492Z,15.54
2019-04-28T06:59:39.620Z,15.79
2019-04-28T07:02:09.764Z,15.97
2019-04-28T07:04:40.550Z,16.00
2019-04-28T07:07:10.689Z,16.10
2019-04-28T07:09:40.813Z,16.21
2019-04-28T07:12:11.008Z,16.19
2019-04-28T07:14:41.175Z,16.17
2019-04-28T07:17:11.302Z,16.39
2019-04-28T07:19:43.089Z,16.61
2019-04-28T07:22:20.042Z,16.75
2019-04-28T07:24:51.320Z,16.65
2019-04-28T07:27:21.649Z,16.89
2019-04-28T07:29:51.799Z,17.17
2019-04-28T07:32:21.927Z,17.49
2019-04-28T07:34:52.426Z,17.50
2019-04-28T07:37:22.553Z,17.68
2019-04-28T07:39:53.145Z,17.46
2019-04-28T07:42:23.295Z,17.40
2019-04-28T07:44:53.444Z,17.60
2019-04-28T07:47:23.575Z,17.79
2019-04-28T07:49:54.691Z,17.81
2019-04-28T07:52:30.936Z,18.07
2019-04-28T07:55:01.113Z,18.19
2019-04-28T07:57:33.149Z,18.31
2019-04-28T08:00:03.562Z,18.63
2019-04-28T08:02:33.796Z,18.81
2019-04-28T08:05:06.517Z,18.97
2019-04-28T08:07:36.656Z,19.14
2019-04-28T08:10:07.383Z,19.22
2019-04-28T08:12:37.495Z,19.42
2019-04-28T08:15:07.714Z,19.35
2019-04-28T08:17:37.883Z,19.42
2019-04-28T08:20:09.199Z,19.54
2019-04-28T08:22:39.328Z,19.67
2019-04-28T08:25:11.748Z,19.64
2019-04-28T08:27:41.877Z,19.69
2019-04-28T08:30:12.401Z,19.91
2019-04-28T08:32:52.098Z,19.83
2019-04-28T08:35:22.258Z,19.84
2019-04-28T08:37:52.402Z,19.41
2019-04-28T08:40:22.600Z,19.67
2019-04-28T08:42:52.703Z,19.32
2019-04-28T08:45:22.938Z,19.67
2019-04-28T08:47:53.241Z,19.40
2019-04-28T08:50:24.361Z,19.33
2019-04-28T08:52:54.533Z,19.22
2019-04-28T08:55:24.774Z,19.21
2019-04-28T08:57:54.914Z,19.16
2019-04-28T09:00:25.034Z,18.93
2019-04-28T09:02:55.239Z,18.77
2019-04-28T09:05:25.405Z,18.79
2019-04-28T09:07:55.544Z,18.67
2019-04-28T09:10:25.687Z,18.87
2019-04-28T09:12:55.813Z,19.03
2019-04-28T09:15:25.999Z,18.92
2019-04-28T09:17:56.142Z,18.63
2019-04-28T09:20:26.272Z,18.38
2019-04-28T09:22:56.747Z,18.27
2019-04-28T09:25:26.892Z,18.16
2019-04-28T09:27:57.199Z,17.95
2019-04-28T09:30:27.335Z,17.77
2019-04-28T09:32:57.448Z,17.83
2019-04-28T09:35:27.573Z,17.75
2019-04-28T09:37:57.766Z,17.76
2019-04-28T09:40:27.950Z,17.86
2019-04-28T09:43:15.782Z,18.12
2019-04-28T09:45:50.264Z,18.11
2019-04-28T09:48:20.442Z,17.76
2019-04-28T09:50:50.556Z,18.00
2019-04-28T09:53:20.790Z,18.26
2019-04-28T09:55:51.020Z,18.08
2019-04-28T09:58:21.145Z,17.93
2019-04-28T10:00:51.286Z,17.88
2019-04-28T10:03:21.407Z,18.03
2019-04-28T10:05:51.534Z,18.20
2019-04-28T10:08:21.726Z,18.35
2019-04-28T10:10:51.891Z,18.30
2019-04-28T10:13:22.069Z,18.58
2019-04-28T10:15:52.302Z,18.82
2019-04-28T10:18:22.451Z,18.72
2019-04-28T10:20:52.600Z,18.57
2019-04-28T10:23:22.800Z,18.67
2019-04-28T10:25:52.913Z,18.65
2019-04-28T10:28:23.185Z,18.92
2019-04-28T10:30:53.334Z,18.90
2019-04-28T10:33:23.674Z,19.08
2019-04-28T10:35:53.797Z,19.08
2019-04-28T10:38:23.914Z,19.04
2019-04-28T10:40:59.741Z,19.18
2019-04-28T10:43:29.858Z,19.24
2019-04-28T10:46:00.605Z,19.16
2019-04-28T10:48:31.403Z,19.06
2019-04-28T10:51:01.535Z,18.99
2019-04-28T10:53:31.687Z,18.96
2019-04-28T10:56:01.853Z,18.91
2019-04-28T10:58:31.990Z,18.90
2019-04-28T11:01:02.240Z,18.95
2019-04-28T11:03:32.436Z,19.18
2019-04-28T11:06:02.623Z,19.25
2019-04-28T11:09:11.292Z,19.20
2019-04-28T11:11:41.941Z,19.48
2019-04-28T11:14:14.183Z,19.46
2019-04-28T11:16:44.020Z,19.43
2019-04-28T11:19:14.179Z,19.49
2019-04-28T11:21:44.729Z,19.53
2019-04-28T11:24:14.975Z,19.48
2019-04-28T11:26:45.107Z,19.47
2019-04-28T11:29:15.206Z,19.32
2019-04-28T11:31:45.365Z,19.41
2019-04-28T11:34:27.575Z,19.36
2019-04-28T11:36:58.844Z,19.42
2019-04-28T11:39:32.023Z,19.31
2019-04-28T11:42:02.169Z,19.31
2019-04-28T11:44:32.294Z,19.24
2019-04-28T11:47:02.717Z,19.20
2019-04-28T11:49:32.854Z,19.47
2019-04-28T11:52:03.391Z,19.38
2019-04-28T11:54:33.511Z,19.47
2019-04-28T11:57:03.692Z,19.55
2019-04-28T11:59:33.839Z,19.38
2019-04-28T12:02:04.072Z,19.29
2019-04-28T12:04:34.306Z,19.24
2019-04-28T12:07:04.660Z,19.21
2019-04-28T12:09:46.500Z,19.17
2019-04-28T12:12:32.441Z,19.20
2019-04-28T12:15:21.590Z,19.30
2019-04-28T12:18:21.096Z,19.57
2019-04-28T12:20:51.315Z,19.47
2019-04-28T12:23:21.442Z,19.31
2019-04-28T12:25:51.557Z,19.29
2019-04-28T12:28:21.763Z,19.17
2019-04-28T12:30:51.884Z,19.33
2019-04-28T12:33:22.063Z,19.31
2019-04-28T12:35:52.159Z,19.14
2019-04-28T12:38:22.286Z,19.21
2019-04-28T12:40:52.515Z,19.23
2019-04-28T12:43:22.670Z,19.21
2019-04-28T12:45:52.777Z,19.17
2019-04-28T12:48:22.907Z,19.11
2019-04-28T12:50:53.318Z,19.10
2019-04-28T12:53:23.611Z,19.18
2019-04-28T12:55:53.718Z,19.22
2019-04-28T12:58:23.842Z,19.26
2019-04-28T13:01:12.953Z,19.25
2019-04-28T13:03:52.899Z,19.16
2019-04-28T13:06:23.108Z,19.04
2019-04-28T13:08:53.594Z,18.93
2019-04-28T13:11:23.743Z,18.93
2019-04-28T13:13:54.209Z,18.99
2019-04-28T13:16:24.332Z,18.99
2019-04-28T13:18:54.474Z,19.12
2019-04-28T13:21:24.603Z,18.99
2019-04-28T13:23:55.180Z,18.96
2019-04-28T13:26:25.304Z,18.99
2019-04-28T13:28:55.464Z,18.88
2019-04-28T13:31:25.630Z,18.71
2019-04-28T13:33:57.005Z,18.47
2019-04-28T13:36:27.127Z,18.40
2019-04-28T13:38:59.598Z,18.37
2019-04-28T13:41:29.705Z,18.40
2019-04-28T13:44:01.422Z,18.19
2019-04-28T13:46:31.536Z,18.12
2019-04-28T13:49:03.444Z,18.22
2019-04-28T13:51:33.581Z,18.43
2019-04-28T13:54:05.480Z,18.43
2019-04-28T13:56:36.739Z,18.40
2019-04-28T13:59:14.917Z,18.28
2019-04-28T14:01:57.896Z,18.33
2019-04-28T14:04:46.135Z,18.33
2019-04-28T14:07:16.204Z,18.35
2019-04-28T14:09:46.383Z,18.38
2019-04-28T14:12:16.533Z,18.38
2019-04-28T14:14:46.703Z,18.18
2019-04-28T14:17:16.791Z,18.15
2019-04-28T14:19:46.957Z,18.14
2019-04-28T14:22:17.080Z,18.32
2019-04-28T14:24:47.209Z,18.17
2019-04-28T14:27:17.411Z,18.08
2019-04-28T14:29:47.572Z,18.00
2019-04-28T14:32:17.703Z,18.12
2019-04-28T14:34:47.811Z,17.84
2019-04-28T14:37:17.933Z,17.76
2019-04-28T14:39:48.157Z,17.63
2019-04-28T14:42:18.342Z,17.48
2019-04-28T14:44:48.503Z,17.53
2019-04-28T14:47:18.671Z,17.31
2019-04-28T14:49:48.825Z,17.34
2019-04-28T14:52:19.175Z,17.38
2019-04-28T14:54:49.457Z,17.09
2019-04-28T14:57:19.730Z,16.95
2019-04-28T14:59:49.905Z,16.93
2019-04-28T15:02:33.096Z,16.91
2019-04-28T15:05:12.348Z,16.92
2019-04-28T15:08:07.818Z,16.77
2019-04-28T15:10:51.845Z,16.84
2019-04-28T15:13:23.009Z,16.57
2019-04-28T15:15:53.230Z,16.46
2019-04-28T15:18:23.277Z,16.36
2019-04-28T15:20:53.446Z,16.30
2019-04-28T15:23:23.568Z,16.23
2019-04-28T15:25:53.865Z,16.16
2019-04-28T15:28:24.114Z,16.12
2019-04-28T15:30:54.271Z,15.95
2019-04-28T15:33:24.420Z,15.87
2019-04-28T15:35:54.545Z,15.76
2019-04-28T15:38:24.695Z,15.74
2019-04-28T15:40:55.224Z,15.73
2019-04-28T15:43:25.343Z,15.58
2019-04-28T15:45:55.497Z,15.53
2019-04-28T15:48:25.621Z,15.46
2019-04-28T15:50:55.767Z,15.43
2019-04-28T15:53:25.926Z,15.33
2019-04-28T15:56:24.243Z,15.29
2019-04-28T15:58:56.711Z,15.12
2019-04-28T16:01:26.613Z,15.01
2019-04-28T16:03:56.822Z,14.94
2019-04-28T16:06:26.972Z,14.77
2019-04-28T16:08:57.172Z,14.84
2019-04-28T16:11:29.010Z,14.68
2019-04-28T16:13:59.318Z,14.55
2019-04-28T16:16:29.474Z,14.39
2019-04-28T16:19:00.784Z,14.46
2019-04-28T16:21:31.981Z,14.30
2019-04-28T16:24:02.144Z,13.99
2019-04-28T16:26:32.652Z,13.92
2019-04-28T16:29:04.653Z,13.76
2019-04-28T16:31:35.001Z,13.48
2019-04-28T16:34:05.234Z,13.43
2019-04-28T16:36:35.397Z,13.38
2019-04-28T16:39:07.316Z,13.32
2019-04-28T16:41:39.025Z,13.15
2019-04-28T16:44:10.338Z,13.12
2019-04-28T16:46:40.470Z,13.05
2019-04-28T16:49:10.576Z,13.11
2019-04-28T16:51:40.716Z,12.96
2019-04-28T16:54:10.875Z,13.03
2019-04-28T16:56:47.225Z,12.99
2019-04-28T16:59:34.836Z,13.11
2019-04-28T17:02:23.929Z,12.84
2019-04-28T17:04:54.059Z,12.96
2019-04-28T17:07:24.193Z,12.72
2019-04-28T17:09:54.344Z,12.59
2019-04-28T17:12:24.569Z,12.46
2019-04-28T17:14:55.739Z,12.40
2019-04-28T17:17:25.894Z,12.48
2019-04-28T17:19:56.170Z,12.33
2019-04-28T17:22:26.332Z,12.27
2019-04-28T17:24:56.460Z,12.30
2019-04-28T17:27:26.581Z,12.27
2019-04-28T17:29:56.725Z,12.21
2019-04-28T17:32:27.180Z,12.17
2019-04-28T17:34:57.536Z,12.04
2019-04-28T17:37:27.803Z,11.91
2019-04-28T17:39:57.918Z,11.89
2019-04-28T17:42:28.203Z,11.92
2019-04-28T17:44:58.350Z,11.84
2019-04-28T17:47:28.511Z,11.78
2019-04-28T17:49:59.748Z,11.80
2019-04-28T17:52:29.884Z,11.66
2019-04-28T17:55:00.020Z,11.65
2019-04-28T17:57:30.466Z,11.69
2019-04-28T18:00:02.513Z,11.65
2019-04-28T18:02:59.309Z,11.54
2019-04-28T18:05:51.862Z,11.72
2019-04-28T18:08:22.043Z,11.74
2019-04-28T18:10:52.230Z,11.73
2019-04-28T18:13:22.592Z,11.73
2019-04-28T18:16:17.722Z,11.77
2019-04-28T18:18:51.734Z,11.80
2019-04-28T18:21:21.909Z,11.83
2019-04-28T18:23:52.162Z,11.84
2019-04-28T18:26:22.275Z,11.85
2019-04-28T18:28:52.397Z,11.83
2019-04-28T18:31:50.788Z,11.83
2019-04-28T18:34:39.723Z,11.82
2019-04-28T18:37:19.907Z,11.80
2019-04-28T18:40:09.593Z,11.74
2019-04-28T18:42:44.284Z,11.68
2019-04-28T18:45:14.991Z,11.61
2019-04-28T18:47:45.148Z,11.55
2019-04-28T18:50:15.777Z,11.50
2019-04-28T18:52:45.903Z,11.47
2019-04-28T18:55:16.261Z,11.41
2019-04-28T18:57:46.446Z,11.34
2019-04-28T19:00:17.982Z,11.08
2019-04-28T19:02:48.409Z,10.92
2019-04-28T19:05:19.549Z,10.89
2019-04-28T19:08:17.794Z,10.89
2019-04-28T19:11:12.220Z,10.77
2019-04-28T19:13:47.765Z,10.70
2019-04-28T19:16:35.562Z,10.51
2019-04-28T19:19:07.866Z,10.57
2019-04-28T19:21:38.069Z,10.60
2019-04-28T19:24:08.207Z,10.53
2019-04-28T19:26:38.459Z,10.60
2019-04-28T19:29:08.602Z,10.42
2019-04-28T19:31:38.788Z,10.37
2019-04-28T19:34:08.928Z,10.41
2019-04-28T19:36:39.100Z,10.46
2019-04-28T19:39:10.556Z,10.31
2019-04-28T19:41:42.480Z,10.24
2019-04-28T19:44:12.597Z,10.22
2019-04-28T19:46:42.824Z,10.11
2019-04-28T19:49:14.239Z,10.15
2019-04-28T19:51:44.833Z,10.04
2019-04-28T19:54:15.933Z,10.13
2019-04-28T19:56:51.493Z,10.16
2019-04-28T19:59:43.691Z,10.02
2019-04-28T20:02:15.609Z,10.06
2019-04-28T20:04:45.752Z,9.97
2019-04-28T20:07:17.693Z,9.86
2019-04-28T20:09:47.830Z,9.82
2019-04-28T20:12:18.575Z,9.70
2019-04-28T20:14:50.046Z,9.52
2019-04-28T20:17:20.257Z,9.42
2019-04-28T20:19:51.747Z,9.37
2019-04-28T20:22:22.001Z,9.40
2019-04-28T20:24:53.545Z,9.33
2019-04-28T20:27:23.803Z,9.29
2019-04-28T20:29:54.004Z,9.27
2019-04-28T20:32:25.195Z,9.16
2019-04-28T20:34:55.447Z,9.10
2019-04-28T20:37:39.486Z,9.00
2019-04-28T20:40:14.865Z,8.89
2019-04-28T20:42:53.357Z,8.87
2019-04-28T20:45:23.497Z,8.89
2019-04-28T20:47:53.641Z,8.70
2019-04-28T20:50:23.870Z,8.83
2019-04-28T20:52:54.044Z,8.90
2019-04-28T20:55:25.070Z,8.96
2019-04-28T20:57:55.837Z,8.99
2019-04-28T21:00:26.204Z,9.00
2019-04-28T21:02:56.462Z,8.97
2019-04-28T21:05:28.009Z,8.92
2019-04-28T21:07:58.125Z,8.92
2019-04-28T21:10:37.579Z,8.85
2019-04-28T21:13:00.515Z,8.84
2019-04-28T21:15:30.705Z,8.79
2019-04-28T21:18:00.887Z,8.77
2019-04-28T21:20:32.077Z,8.77
2019-04-28T21:23:03.279Z,8.74
2019-04-28T21:25:34.874Z,8.68
2019-04-28T21:28:05.263Z,8.65
2019-04-28T21:30:35.399Z,8.59
2019-04-28T21:33:05.654Z,8.58
2019-04-28T21:35:35.837Z,8.51
2019-04-28T21:38:05.973Z,8.43
2019-04-28T21:40:36.664Z,8.37
2019-04-28T21:43:31.589Z,8.32
2019-04-28T21:46:20.003Z,8.32
2019-04-28T21:48:52.529Z,8.31
2019-04-28T21:51:22.642Z,8.26
2019-04-28T21:53:52.887Z,8.17
2019-04-28T21:56:24.584Z,8.10
2019-04-28T21:58:54.744Z,8.02
2019-04-28T22:01:25.393Z,7.63
2019-04-28T22:03:56.793Z,7.45
2019-04-28T22:06:26.921Z,7.54
2019-04-28T22:08:57.051Z,7.50
2019-04-28T22:11:27.251Z,7.54
2019-04-28T22:13:57.391Z,7.61
2019-04-28T22:16:27.581Z,7.63
2019-04-28T22:18:57.748Z,7.67
2019-04-28T22:21:27.854Z,7.72
2019-04-28T22:24:06.003Z,7.73
2019-04-28T22:26:44.739Z,7.73
2019-04-28T22:29:14.960Z,7.74
2019-04-28T22:31:48.438Z,7.73
2019-04-28T22:34:19.100Z,7.71
2019-04-28T22:36:49.320Z,7.71
2019-04-28T22:39:19.494Z,7.68
2019-04-28T22:41:49.575Z,7.65
2019-04-28T22:44:19.741Z,7.62
2019-04-28T22:46:50.036Z,7.61
2019-04-28T22:49:20.360Z,7.59
2019-04-28T22:51:50.502Z,7.54
2019-04-28T22:54:39.576Z,7.48
2019-04-28T22:57:32.308Z,7.45
2019-04-28T23:00:02.465Z,7.39
2019-04-28T23:02:34.209Z,7.35
2019-04-28T23:05:10.346Z,7.32
2019-04-28T23:07:40.452Z,7.28
2019-04-28T23:10:10.782Z,7.26
2019-04-28T23:12:40.908Z,7.24
2019-04-28T23:15:14.001Z,7.21
2019-04-28T23:17:43.430Z,7.17
2019-04-28T23:20:15.490Z,7.13
2019-04-28T23:22:48.641Z,7.09
2019-04-28T23:25:18.758Z,7.03
2019-04-28T23:27:48.870Z,6.98
2019-04-28T23:30:45.314Z,6.96
2019-04-28T23:33:15.425Z,6.94
2019-04-28T23:35:45.594Z,6.91
2019-04-28T23:38:15.737Z,6.89
2019-04-28T23:40:55.326Z,6.88
2019-04-28T23:43:25.441Z,6.81
2019-04-28T23:45:55.561Z,6.76
2019-04-28T23:48:25.745Z,6.68
2019-04-28T23:51:05.650Z,6.60
2019-04-28T23:53:58.336Z,6.55
2019-04-28T23:56:28.480Z,6.50
2019-04-28T23:58:59.663Z,6.45
